NOZ7544 BIKF-ENSB
Flight info
| Callsign | NOZ7544 |
|---|---|
| Flight time | N/A |
| Altitude | 35000 |
| Route | LUTER3C LUTER DCT 66N010W 73N000W/N0464F350 DCT INPAR |
| Aircraft | B738/M-SDE2E3FGHIRWXY/LB1 |
Departure
| Time | N/A |
|---|---|
| Airport | Keflavik International Airport (BIKF) |
Arrival
| Time | 2026-04-27 15:49 |
|---|---|
| Airport | Svalbard Airport, Longyear (ENSB) |
| Time | Latitude | Longitude | Altitude | Speed | Heading |
|---|---|---|---|---|---|
| 2026-04-27 15:44 | 78.11478 | 16.59797 | 5081 ft | 217 kts | 297° |
| 2026-04-27 15:44 | 78.12163 | 16.53388 | 5009 ft | 210 kts | 300° |
| 2026-04-27 15:45 | 78.12853 | 16.47231 | 4994 ft | 205 kts | 301° |
| 2026-04-27 15:45 | 78.13562 | 16.41207 | 4973 ft | 205 kts | 301° |
| 2026-04-27 15:45 | 78.14292 | 16.35130 | 4674 ft | 213 kts | 302° |
| 2026-04-27 15:45 | 78.15071 | 16.28900 | 4351 ft | 219 kts | 302° |
| 2026-04-27 15:46 | 78.15880 | 16.22442 | 3951 ft | 227 kts | 302° |
| 2026-04-27 15:46 | 78.16752 | 16.16031 | 3573 ft | 233 kts | 305° |
| 2026-04-27 15:46 | 78.17644 | 16.09365 | 3193 ft | 238 kts | 301° |
| 2026-04-27 15:46 | 78.18488 | 16.02355 | 2815 ft | 242 kts | 300° |
| 2026-04-27 15:47 | 78.19343 | 15.95194 | 2436 ft | 246 kts | 300° |
| 2026-04-27 15:47 | 78.20207 | 15.88095 | 2086 ft | 235 kts | 301° |
| 2026-04-27 15:47 | 78.21008 | 15.81472 | 1753 ft | 217 kts | 300° |
| 2026-04-27 15:47 | 78.21760 | 15.75366 | 1282 ft | 202 kts | 301° |
| 2026-04-27 15:48 | 78.22423 | 15.69692 | 1031 ft | 181 kts | 301° |
| 2026-04-27 15:48 | 78.23035 | 15.64727 | 853 ft | 158 kts | 302° |
| 2026-04-27 15:48 | 78.23588 | 15.60344 | 611 ft | 147 kts | 303° |
| 2026-04-27 15:49 | 78.24335 | 15.51445 | 144 ft | 142 kts | 288° |
| 2026-04-27 15:49 | 78.24585 | 15.47033 | 87 ft | 112 kts | 287° |
| 2026-04-27 15:49 | 78.24735 | 15.44366 | 89 ft | 50 kts | 285° |
| 2026-04-27 15:49 | 78.24810 | 15.43007 | 89 ft | 39 kts | 285° |
| 2026-04-27 15:50 | 78.24878 | 15.41763 | 87 ft | 36 kts | 284° |
| 2026-04-27 15:50 | 78.24919 | 15.41172 | 88 ft | 9 kts | 8° |
| 2026-04-27 15:50 | 78.24913 | 15.41333 | 90 ft | 7 kts | 136° |
| 2026-04-27 15:50 | 78.24875 | 15.41820 | 87 ft | 24 kts | 103° |
| 2026-04-27 15:51 | 78.24818 | 15.42873 | 87 ft | 40 kts | 104° |
| 2026-04-27 15:51 | 78.24735 | 15.44403 | 88 ft | 53 kts | 105° |
| 2026-04-27 15:51 | 78.24695 | 15.45114 | 90 ft | 57 kts | 105° |
| 2026-04-27 15:51 | 78.24643 | 15.46045 | 88 ft | 62 kts | 105° |
| 2026-04-27 15:52 | 78.24638 | 15.46139 | 88 ft | 63 kts | 105° |
| 2026-04-27 15:52 | 78.24543 | 15.47839 | 87 ft | 8 kts | 105° |
| 2026-04-27 15:52 | 78.24539 | 15.47934 | 88 ft | 1 kts | 92° |
| 2026-04-27 15:52 | 78.24552 | 15.48018 | 87 ft | 9 kts | 41° |
| 2026-04-27 15:53 | 78.24592 | 15.48485 | 89 ft | 8 kts | 79° |
| 2026-04-27 15:53 | 78.24624 | 15.48722 | 87 ft | 9 kts | 33° |
| 2026-04-27 15:53 | 78.24622 | 15.48994 | 88 ft | 9 kts | 115° |
| 2026-04-27 15:53 | 78.24592 | 15.49359 | 87 ft | 3 kts | 105° |
| 2026-04-27 15:54 | 78.24588 | 15.49481 | 88 ft | 4 kts | 85° |
| 2026-04-27 15:54 | 78.24601 | 15.49530 | 88 ft | 0 kts | 13° |
| 2026-04-27 15:54 | 78.24603 | 15.49532 | 88 ft | 0 kts | 14° |